To NAV CANADA Home Page Login to a new session Search on AWWS site Feedback and Comments Disclaimer Vers la page française équivalente Tips FAQ What's new on the site To the Forecasts and Observations / NOTAM section To "File a Flight Plan" website Publications and other links Update of the User's profile FIC Telephone Numbers My Weather Data Folder Route Weather Data Regional Weather Data Local Weather Data To the Forecasts and Observations / NOTAM section
Request Generated 02/23/2017 at 20:46:06 UTC . Weather information available at that time is displayed.

METAR/TAF

SAINT JOHN/NB    

SPECI CYSJ 232009Z 21016G22KT 15SM FEW003 BKN006 OVC085 03/03 A2979
RMK SF2SF4AC2 SLP094=
METAR CYSJ 232000Z 21014KT 15SM FEW006 BKN062 OVC086 04/02 A2979 RMK
SF2SC3AC3 SLP095=
METAR CYSJ 231900Z 20014G19KT 15SM FEW010 BKN060 OVC082 04/02 A2980
RMK SC1SC5AC2 SLP097=
METAR CYSJ 231800Z 21014G21KT 15SM SCT011 04/03 A2982 RMK SC4 SLP103=

TAF CYSJ 231738Z 2318/2406 22012G22KT P6SM SCT007 TEMPO 2318/2322
BKN007
FM232200 20015KT 6SM BR FEW002 SCT006 TEMPO 2322/2401 1SM BR
BKN002 OVC006
FM240100 21015KT 1SM -DZ BR OVC003 TEMPO 2401/2406 1/2SM FG VV001
BECMG 2404/2406 24010KT
RMK NXT FCST BY 240000Z=
Your time UTC time
Weather data provided by Environment Canada and NAV CANADA